createdAt,value
2018-07-02T00:00:28.906Z,33.70
2018-07-02T00:02:58.451Z,32.76
2018-07-02T00:06:47.320Z,34.07
2018-07-02T00:09:16.612Z,33.44
2018-07-02T00:11:45.951Z,33.35
2018-07-02T00:14:16.327Z,34.79
2018-07-02T00:16:45.590Z,33.85
2018-07-02T00:19:14.837Z,33.67
2018-07-02T00:21:44.177Z,36.98
2018-07-02T00:24:13.559Z,34.14
2018-07-02T00:26:42.841Z,33.68
2018-07-02T00:29:12.139Z,33.48
2018-07-02T00:31:41.414Z,35.43
2018-07-02T00:34:10.681Z,35.40
2018-07-02T00:36:39.973Z,34.99
2018-07-02T00:39:11.972Z,34.43
2018-07-02T00:41:41.942Z,35.38
2018-07-02T00:44:11.534Z,35.83
2018-07-02T00:46:40.819Z,38.12
2018-07-02T00:49:10.130Z,35.44
2018-07-02T00:51:39.400Z,38.30
2018-07-02T00:54:08.702Z,37.36
2018-07-02T00:56:38.013Z,35.21
2018-07-02T00:59:07.372Z,38.11
2018-07-02T01:01:36.780Z,37.28
2018-07-02T01:04:06.109Z,37.08
2018-07-02T01:06:35.411Z,35.91
2018-07-02T01:09:07.563Z,37.36
2018-07-02T01:11:37.091Z,38.44
2018-07-02T01:14:06.877Z,39.14
2018-07-02T01:16:36.139Z,38.90
2018-07-02T01:19:08.402Z,38.89
2018-07-02T01:21:37.746Z,39.43
2018-07-02T01:24:07.035Z,39.00
2018-07-02T01:26:36.166Z,39.36
2018-07-02T01:29:05.481Z,39.09
2018-07-02T01:31:34.742Z,40.84
2018-07-02T01:34:04.216Z,39.61
2018-07-02T01:36:33.532Z,40.44
2018-07-02T01:39:02.824Z,39.35
2018-07-02T01:41:32.110Z,40.41
2018-07-02T01:44:01.439Z,39.77
2018-07-02T01:46:30.767Z,40.56
2018-07-02T01:49:00.092Z,39.73
2018-07-02T01:51:29.381Z,39.94
2018-07-02T01:53:58.702Z,40.05
2018-07-02T01:56:27.792Z,41.21
2018-07-02T01:58:57.188Z,41.51
2018-07-02T02:01:26.546Z,41.63
2018-07-02T02:03:55.921Z,41.24
2018-07-02T02:06:25.297Z,41.79
2018-07-02T02:08:54.765Z,41.43
2018-07-02T02:11:24.103Z,41.62
2018-07-02T02:13:53.834Z,41.53
2018-07-02T02:16:23.485Z,40.67
2018-07-02T02:18:52.788Z,41.88
2018-07-02T02:21:22.072Z,40.29
2018-07-02T02:23:51.391Z,42.04
2018-07-02T02:26:20.650Z,43.47
2018-07-02T02:28:50.058Z,43.49
2018-07-02T02:31:19.333Z,43.33
2018-07-02T02:33:48.685Z,42.44
2018-07-02T02:36:18.099Z,43.05
2018-07-02T02:38:47.371Z,44.78
2018-07-02T02:41:16.692Z,44.22
2018-07-02T02:43:46.149Z,45.89
2018-07-02T02:46:15.469Z,45.47
2018-07-02T02:48:44.944Z,45.51
2018-07-02T02:51:14.359Z,45.53
2018-07-02T02:53:43.700Z,46.07
2018-07-02T02:56:13.131Z,46.47
2018-07-02T02:58:42.451Z,46.93
2018-07-02T03:01:11.769Z,46.72
2018-07-02T03:03:41.270Z,45.70
2018-07-02T03:06:10.611Z,46.29
2018-07-02T03:08:39.872Z,47.79
2018-07-02T03:11:09.224Z,47.41
2018-07-02T03:13:38.539Z,48.70
2018-07-02T03:16:07.915Z,47.65
2018-07-02T03:18:37.188Z,48.51
2018-07-02T03:21:06.658Z,48.70
2018-07-02T03:23:35.929Z,49.04
2018-07-02T03:26:05.333Z,47.85
2018-07-02T03:28:34.682Z,48.93
2018-07-02T03:31:04.312Z,48.86
2018-07-02T03:33:33.772Z,49.29
2018-07-02T03:36:03.236Z,48.61
2018-07-02T03:38:32.687Z,49.59
2018-07-02T03:41:01.997Z,48.63
2018-07-02T03:43:31.295Z,49.60
2018-07-02T03:46:00.687Z,48.94
2018-07-02T03:48:30.010Z,48.23
2018-07-02T03:50:59.385Z,48.36
2018-07-02T03:53:28.652Z,50.52
2018-07-02T03:55:57.928Z,48.84
2018-07-02T03:58:27.342Z,47.98
2018-07-02T04:00:56.750Z,48.79
2018-07-02T04:03:26.054Z,46.81
2018-07-02T04:05:55.325Z,47.66
2018-07-02T04:08:24.931Z,48.24
2018-07-02T04:10:54.317Z,49.31
2018-07-02T04:13:23.639Z,49.35
2018-07-02T04:15:53.056Z,47.28
2018-07-02T04:18:22.383Z,48.69
2018-07-02T04:20:51.785Z,46.95
2018-07-02T04:23:21.091Z,45.35
2018-07-02T04:25:50.396Z,42.14
2018-07-02T04:28:19.730Z,39.43
2018-07-02T04:30:49.098Z,39.59
2018-07-02T04:33:18.409Z,42.07
2018-07-02T04:35:47.850Z,41.40
2018-07-02T04:38:17.142Z,43.06
2018-07-02T04:40:46.499Z,43.50
2018-07-02T04:43:15.798Z,44.98
2018-07-02T04:45:45.114Z,43.47
2018-07-02T04:48:14.556Z,43.67
2018-07-02T04:50:44.040Z,44.52
2018-07-02T04:53:13.473Z,43.80
2018-07-02T04:55:42.901Z,44.26
2018-07-02T04:58:12.294Z,44.71
2018-07-02T05:00:41.589Z,44.35
2018-07-02T05:03:10.842Z,43.11
2018-07-02T05:05:40.142Z,43.51
2018-07-02T05:08:09.471Z,43.94
2018-07-02T05:10:38.762Z,42.16
2018-07-02T05:13:08.041Z,43.03
2018-07-02T05:15:37.532Z,42.15
2018-07-02T05:18:06.682Z,42.81
2018-07-02T05:20:36.013Z,42.42
2018-07-02T05:23:05.437Z,41.26
2018-07-02T05:25:34.771Z,42.28
2018-07-02T05:28:04.046Z,41.53
2018-07-02T05:30:33.373Z,40.86
2018-07-02T05:33:02.787Z,41.62
2018-07-02T05:35:32.189Z,40.38
2018-07-02T05:38:01.534Z,38.95
2018-07-02T05:40:30.917Z,39.22
2018-07-02T05:43:00.263Z,38.38
2018-07-02T05:45:29.801Z,37.95
2018-07-02T05:47:59.428Z,39.08
2018-07-02T05:50:28.910Z,38.91
2018-07-02T05:52:58.308Z,38.09
2018-07-02T05:55:27.690Z,37.28
2018-07-02T05:57:57.207Z,37.10
2018-07-02T06:00:26.902Z,37.17
2018-07-02T06:02:56.218Z,37.69
2018-07-02T06:05:25.706Z,38.94
2018-07-02T06:07:55.508Z,36.95
2018-07-02T06:10:25.114Z,37.09
2018-07-02T06:12:54.856Z,36.68
2018-07-02T06:15:24.163Z,36.78
2018-07-02T06:17:53.527Z,35.88
2018-07-02T06:20:22.947Z,34.60
2018-07-02T06:22:52.346Z,36.62
2018-07-02T06:25:21.616Z,35.07
2018-07-02T06:27:51.090Z,34.40
2018-07-02T06:30:20.389Z,33.74
2018-07-02T06:32:49.818Z,33.78
2018-07-02T06:35:19.118Z,32.84
2018-07-02T06:37:48.530Z,32.78
2018-07-02T06:40:17.858Z,32.64
2018-07-02T06:42:47.163Z,32.11
2018-07-02T06:45:16.571Z,32.27
2018-07-02T06:47:45.987Z,32.93
2018-07-02T06:50:15.280Z,32.60
2018-07-02T06:52:44.606Z,31.87
2018-07-02T06:55:13.913Z,32.06
2018-07-02T06:57:43.292Z,31.31
2018-07-02T07:00:12.739Z,30.27
2018-07-02T07:02:42.146Z,30.40
2018-07-02T07:05:11.563Z,29.26
2018-07-02T07:07:41.011Z,29.60
2018-07-02T07:10:10.418Z,29.54
2018-07-02T07:12:39.731Z,30.33
2018-07-02T07:15:09.024Z,29.40
2018-07-02T07:17:38.318Z,27.99
2018-07-02T07:20:07.789Z,29.51
2018-07-02T07:22:37.129Z,28.55
2018-07-02T07:25:06.410Z,27.77
2018-07-02T07:27:35.813Z,27.62
2018-07-02T07:30:05.868Z,27.08
2018-07-02T07:32:35.245Z,27.51
2018-07-02T07:35:04.541Z,28.50
2018-07-02T07:37:33.837Z,27.64
2018-07-02T07:40:03.173Z,27.30
2018-07-02T07:42:32.657Z,26.17
2018-07-02T07:45:01.970Z,25.55
2018-07-02T07:47:31.351Z,25.67
2018-07-02T07:50:00.643Z,25.87
2018-07-02T07:52:30.011Z,24.98
2018-07-02T07:54:59.399Z,25.05
2018-07-02T07:57:28.814Z,23.73
2018-07-02T07:59:58.178Z,25.77
2018-07-02T08:02:28.641Z,24.62
2018-07-02T08:04:58.062Z,24.79
2018-07-02T08:07:28.532Z,24.64
2018-07-02T08:09:57.918Z,23.93
2018-07-02T08:12:27.503Z,24.27
2018-07-02T08:14:56.801Z,25.81
2018-07-02T08:17:26.365Z,23.70
2018-07-02T08:19:55.740Z,22.36
2018-07-02T08:22:25.218Z,23.66
2018-07-02T08:24:54.765Z,23.15
2018-07-02T08:27:24.216Z,23.18
2018-07-02T08:29:53.511Z,22.72
2018-07-02T08:32:22.947Z,22.63
2018-07-02T08:34:52.289Z,23.08
2018-07-02T08:37:21.594Z,22.31
2018-07-02T08:39:50.849Z,22.16
2018-07-02T08:42:20.181Z,22.97
2018-07-02T08:44:49.603Z,22.22
2018-07-02T08:47:18.937Z,23.33
2018-07-02T08:49:48.213Z,21.93
2018-07-02T08:52:17.716Z,21.49
2018-07-02T08:54:47.022Z,21.27
2018-07-02T08:57:16.427Z,20.83
2018-07-02T08:59:45.743Z,21.19
2018-07-02T09:02:15.122Z,21.80
2018-07-02T09:04:44.705Z,21.06
2018-07-02T09:07:14.033Z,21.99
2018-07-02T09:09:43.319Z,21.11
2018-07-02T09:12:12.688Z,22.36
2018-07-02T09:14:42.091Z,21.51
2018-07-02T09:17:11.316Z,20.11
2018-07-02T09:19:40.601Z,21.30
2018-07-02T09:22:10.024Z,19.64
2018-07-02T09:24:39.406Z,19.68
2018-07-02T09:27:08.650Z,20.41
2018-07-02T09:29:38.019Z,19.63
2018-07-02T09:32:07.281Z,19.00
2018-07-02T09:34:36.617Z,19.36
2018-07-02T09:37:06.433Z,19.88
2018-07-02T09:39:35.682Z,19.44
2018-07-02T09:42:04.965Z,20.07
2018-07-02T09:44:34.255Z,19.95
2018-07-02T09:47:03.526Z,21.12
2018-07-02T09:49:32.823Z,20.74
2018-07-02T09:52:02.027Z,20.36
2018-07-02T09:54:32.268Z,20.91
2018-07-02T09:57:01.626Z,21.80
2018-07-02T09:59:31.015Z,21.82
2018-07-02T10:02:00.265Z,20.78
2018-07-02T10:04:29.543Z,20.58
2018-07-02T10:06:58.971Z,19.93
2018-07-02T10:09:28.425Z,20.31
2018-07-02T10:11:57.748Z,21.05
2018-07-02T10:14:27.215Z,21.01
2018-07-02T10:16:56.635Z,20.60
2018-07-02T10:19:26.314Z,21.41
2018-07-02T10:21:55.973Z,21.56
2018-07-02T10:24:25.541Z,20.93
2018-07-02T10:26:55.164Z,18.83
2018-07-02T10:29:24.954Z,19.71
2018-07-02T10:31:54.449Z,19.89
2018-07-02T10:34:23.969Z,21.07
2018-07-02T10:36:53.455Z,20.47
2018-07-02T10:39:22.949Z,21.44
2018-07-02T10:41:52.248Z,19.22
2018-07-02T10:44:21.731Z,19.84
2018-07-02T10:46:51.039Z,21.64
2018-07-02T10:49:20.459Z,21.70
2018-07-02T10:51:49.760Z,21.30
2018-07-02T10:54:19.149Z,20.46
2018-07-02T10:56:48.473Z,21.85
2018-07-02T10:59:17.777Z,21.45
2018-07-02T11:01:47.055Z,22.46
2018-07-02T11:04:16.445Z,21.48
2018-07-02T11:06:45.843Z,20.60
2018-07-02T11:09:15.249Z,21.53
2018-07-02T11:11:44.942Z,21.89
2018-07-02T11:14:14.289Z,20.75
2018-07-02T11:16:44.235Z,21.96
2018-07-02T11:19:13.699Z,20.45
2018-07-02T11:21:42.990Z,20.40
2018-07-02T11:24:12.794Z,19.96
2018-07-02T11:26:42.326Z,19.24
2018-07-02T11:29:11.915Z,19.02
2018-07-02T11:31:41.430Z,19.26
2018-07-02T11:34:10.788Z,20.57
2018-07-02T11:36:40.064Z,19.65
2018-07-02T11:39:11.550Z,18.52
2018-07-02T11:41:40.950Z,19.89
2018-07-02T11:44:10.501Z,20.72
2018-07-02T11:46:39.857Z,20.10
2018-07-02T11:49:09.248Z,19.26
2018-07-02T11:51:38.613Z,18.42
2018-07-02T11:54:07.952Z,19.54
2018-07-02T11:56:37.281Z,19.80
2018-07-02T11:59:06.766Z,19.41
2018-07-02T12:01:36.105Z,20.45
2018-07-02T12:04:05.480Z,19.16
2018-07-02T12:06:34.859Z,20.58
2018-07-02T12:09:06.120Z,20.82
2018-07-02T12:11:35.532Z,18.93
2018-07-02T12:14:05.132Z,19.45
2018-07-02T12:16:34.707Z,19.70
2018-07-02T12:19:04.012Z,20.02
2018-07-02T12:21:33.575Z,19.78
2018-07-02T12:24:03.122Z,19.10
2018-07-02T12:26:32.786Z,18.54
2018-07-02T12:29:02.221Z,19.86
2018-07-02T12:31:31.610Z,20.42
2018-07-02T12:34:00.927Z,20.12
2018-07-02T12:36:30.345Z,18.99
2018-07-02T12:38:59.758Z,19.90
2018-07-02T12:41:29.152Z,20.12
2018-07-02T12:43:58.525Z,21.00
2018-07-02T12:46:27.929Z,20.36
2018-07-02T12:48:57.706Z,20.08
2018-07-02T12:51:27.414Z,19.71
2018-07-02T12:53:56.805Z,19.09
2018-07-02T12:56:26.173Z,20.26
2018-07-02T12:58:55.782Z,19.04
2018-07-02T13:01:25.322Z,18.39
2018-07-02T13:03:54.636Z,18.82
2018-07-02T13:06:24.098Z,19.24
2018-07-02T13:08:53.612Z,19.04
2018-07-02T13:11:22.865Z,18.64
2018-07-02T13:13:52.147Z,18.49
2018-07-02T13:16:21.387Z,18.72
2018-07-02T13:18:50.650Z,18.88
2018-07-02T13:21:19.974Z,19.28
2018-07-02T13:23:49.212Z,18.73
2018-07-02T13:26:18.577Z,20.08
2018-07-02T13:28:47.939Z,19.54
2018-07-02T13:31:17.378Z,19.72
2018-07-02T13:33:46.677Z,19.18
2018-07-02T13:36:16.146Z,20.15
2018-07-02T13:38:45.380Z,20.43
2018-07-02T13:41:14.706Z,20.03
2018-07-02T13:43:44.002Z,19.03
2018-07-02T13:46:13.389Z,18.57
2018-07-02T13:48:42.840Z,18.62
2018-07-02T13:51:12.228Z,20.16
2018-07-02T13:53:41.446Z,20.05
2018-07-02T13:56:10.758Z,19.66
2018-07-02T13:58:40.187Z,18.96
2018-07-02T14:01:09.501Z,19.08
2018-07-02T14:03:38.735Z,19.12
2018-07-02T14:06:08.056Z,19.47
2018-07-02T14:08:37.367Z,19.42
2018-07-02T14:11:06.651Z,19.28
2018-07-02T14:13:37.019Z,19.26
2018-07-02T14:16:06.416Z,19.29
2018-07-02T14:18:35.783Z,21.34
2018-07-02T14:21:05.200Z,19.67
2018-07-02T14:23:34.476Z,20.07
2018-07-02T14:26:03.825Z,20.96
2018-07-02T14:28:33.083Z,20.30
2018-07-02T14:31:02.434Z,21.42
2018-07-02T14:33:31.705Z,21.15
2018-07-02T14:36:01.042Z,20.47
2018-07-02T14:38:30.383Z,20.79
2018-07-02T14:40:59.744Z,21.29
2018-07-02T14:43:29.101Z,20.13
2018-07-02T14:45:58.599Z,20.97
2018-07-02T14:48:27.963Z,20.86
2018-07-02T14:50:57.558Z,21.87
2018-07-02T14:53:26.972Z,20.34
2018-07-02T14:55:56.366Z,20.81
2018-07-02T14:58:25.788Z,22.23
2018-07-02T15:00:55.573Z,20.83
2018-07-02T15:03:25.181Z,21.42
2018-07-02T15:05:54.674Z,22.17
2018-07-02T15:08:24.091Z,21.67
2018-07-02T15:10:53.611Z,21.53
2018-07-02T15:13:22.918Z,21.62
2018-07-02T15:15:52.207Z,21.93
2018-07-02T15:18:21.598Z,22.69
2018-07-02T15:20:50.812Z,21.38
2018-07-02T15:23:20.211Z,22.02
2018-07-02T15:25:49.506Z,22.48
2018-07-02T15:28:18.907Z,23.15
2018-07-02T15:30:51.590Z,23.13
2018-07-02T15:33:20.968Z,22.87
2018-07-02T15:35:50.354Z,21.84
2018-07-02T15:38:19.655Z,22.06
2018-07-02T15:40:48.912Z,22.96
2018-07-02T15:43:18.340Z,23.78
2018-07-02T15:45:47.618Z,23.00
2018-07-02T15:48:17.107Z,22.76
2018-07-02T15:50:46.484Z,23.13
2018-07-02T15:53:16.806Z,23.80
2018-07-02T15:55:46.176Z,23.17
2018-07-02T15:58:15.669Z,23.02
2018-07-02T16:00:46.160Z,23.41
2018-07-02T16:03:16.593Z,23.08
2018-07-02T16:05:46.004Z,22.99
2018-07-02T16:08:15.484Z,22.75
2018-07-02T16:10:44.866Z,24.37
2018-07-02T16:13:14.274Z,23.61
2018-07-02T16:15:43.819Z,23.51
2018-07-02T16:18:13.238Z,24.22
2018-07-02T16:20:42.607Z,22.65
2018-07-02T16:23:11.891Z,24.94
2018-07-02T16:25:41.028Z,24.34
2018-07-02T16:28:10.528Z,23.66
2018-07-02T16:30:39.913Z,23.81
2018-07-02T16:33:09.460Z,23.84
2018-07-02T16:35:39.041Z,23.37
2018-07-02T16:38:08.297Z,23.41
2018-07-02T16:40:37.777Z,23.97
2018-07-02T16:43:08.178Z,24.48
2018-07-02T16:45:37.590Z,24.20
2018-07-02T16:48:07.532Z,24.19
2018-07-02T16:50:36.758Z,24.40
2018-07-02T16:53:06.271Z,24.14
2018-07-02T16:55:35.681Z,24.34
2018-07-02T16:58:04.992Z,24.34
2018-07-02T17:00:34.316Z,25.01
2018-07-02T17:03:03.686Z,23.80
2018-07-02T17:05:33.116Z,24.18
2018-07-02T17:08:02.434Z,24.34
2018-07-02T17:10:31.781Z,25.15
2018-07-02T17:13:01.065Z,24.38
2018-07-02T17:15:30.358Z,24.46
2018-07-02T17:17:59.750Z,24.97
2018-07-02T17:20:29.146Z,25.49
2018-07-02T17:22:58.555Z,24.84
2018-07-02T17:25:27.855Z,24.08
2018-07-02T17:27:57.242Z,24.79
2018-07-02T17:30:26.640Z,25.13
2018-07-02T17:32:56.123Z,24.06
2018-07-02T17:35:25.779Z,25.02
2018-07-02T17:37:55.563Z,24.35
2018-07-02T17:40:24.917Z,25.53
2018-07-02T17:42:54.304Z,24.40
2018-07-02T17:45:23.600Z,25.71
2018-07-02T17:47:52.879Z,24.71
2018-07-02T17:50:22.181Z,25.41
2018-07-02T17:52:51.556Z,24.87
2018-07-02T17:55:20.609Z,26.03
2018-07-02T17:57:49.985Z,25.57
2018-07-02T18:00:19.264Z,25.49
2018-07-02T18:02:48.920Z,25.06
2018-07-02T18:05:18.410Z,26.63
2018-07-02T18:07:48.264Z,25.51
2018-07-02T18:10:17.537Z,27.00
2018-07-02T18:12:46.877Z,26.00
2018-07-02T18:15:16.415Z,27.09
2018-07-02T18:17:45.789Z,26.07
2018-07-02T18:20:15.146Z,26.35
2018-07-02T18:22:44.505Z,27.55
2018-07-02T18:25:13.847Z,27.18
2018-07-02T18:27:43.400Z,27.32
2018-07-02T18:30:12.815Z,26.87
2018-07-02T18:32:42.334Z,27.48
2018-07-02T18:35:11.650Z,27.17
2018-07-02T18:37:41.086Z,28.34
2018-07-02T18:40:10.364Z,26.92
2018-07-02T18:42:39.417Z,28.58
2018-07-02T18:45:08.801Z,27.77
2018-07-02T18:47:38.006Z,27.52
2018-07-02T18:50:07.429Z,28.09
2018-07-02T18:52:36.825Z,28.63
2018-07-02T18:55:06.409Z,28.26
2018-07-02T18:57:35.885Z,28.33
2018-07-02T19:00:06.061Z,28.82
2018-07-02T19:02:35.466Z,28.83
2018-07-02T19:05:06.207Z,28.80
2018-07-02T19:07:35.641Z,29.03
2018-07-02T19:10:05.881Z,29.69
2018-07-02T19:12:35.368Z,28.70
2018-07-02T19:15:04.786Z,29.03
2018-07-02T19:17:34.150Z,28.30
2018-07-02T19:20:03.605Z,28.32
2018-07-02T19:22:32.925Z,26.70
2018-07-02T19:25:05.695Z,28.53
2018-07-02T19:27:35.035Z,28.09
2018-07-02T19:30:04.481Z,28.38
2018-07-02T19:32:33.751Z,28.57
2018-07-02T19:35:03.082Z,29.79
2018-07-02T19:37:32.640Z,28.87
2018-07-02T19:40:02.010Z,30.78
2018-07-02T19:42:31.431Z,29.10
2018-07-02T19:45:01.234Z,30.36
2018-07-02T19:47:31.088Z,30.36
2018-07-02T19:50:00.498Z,30.33
2018-07-02T19:52:30.116Z,31.29
2018-07-02T19:54:59.472Z,30.17
2018-07-02T19:57:28.961Z,31.16
2018-07-02T19:59:58.501Z,31.51
2018-07-02T20:02:27.998Z,31.10
2018-07-02T20:04:57.229Z,30.60
2018-07-02T20:07:26.704Z,30.35
2018-07-02T20:09:56.058Z,29.95
2018-07-02T20:12:25.514Z,31.45
2018-07-02T20:14:55.659Z,31.61
2018-07-02T20:17:25.369Z,31.51
2018-07-02T20:19:54.855Z,31.19
2018-07-02T20:22:24.223Z,33.21
2018-07-02T20:24:53.778Z,31.67
2018-07-02T20:27:23.543Z,33.47
2018-07-02T20:29:52.949Z,32.31
2018-07-02T20:32:22.297Z,31.76
2018-07-02T20:34:51.724Z,33.25
2018-07-02T20:37:21.026Z,32.59
2018-07-02T20:39:50.415Z,31.87
2018-07-02T20:42:19.804Z,33.07
2018-07-02T20:44:49.182Z,31.52
2018-07-02T20:47:18.600Z,31.92
2018-07-02T20:49:47.948Z,32.01
2018-07-02T20:52:17.239Z,32.10
2018-07-02T20:54:46.642Z,33.03
2018-07-02T20:57:16.015Z,32.47
2018-07-02T20:59:45.481Z,31.67
2018-07-02T21:02:14.884Z,31.99
2018-07-02T21:04:44.216Z,32.29
2018-07-02T21:07:13.594Z,32.49
2018-07-02T21:09:43.009Z,32.16
2018-07-02T21:12:12.382Z,32.81
2018-07-02T21:14:41.685Z,31.77
2018-07-02T21:17:10.837Z,31.65
2018-07-02T21:19:40.252Z,31.37
2018-07-02T21:22:09.930Z,31.71
2018-07-02T21:24:39.284Z,31.87
2018-07-02T21:27:08.638Z,32.68
2018-07-02T21:29:38.091Z,31.82
2018-07-02T21:32:07.517Z,32.35
2018-07-02T21:34:37.014Z,32.48
2018-07-02T21:37:06.858Z,32.94
2018-07-02T21:39:36.186Z,32.95
2018-07-02T21:42:05.682Z,33.06
2018-07-02T21:44:35.086Z,32.98
2018-07-02T21:47:10.065Z,33.52
2018-07-02T21:49:40.164Z,31.83
2018-07-02T21:52:09.915Z,33.72
2018-07-02T21:54:39.326Z,33.62
2018-07-02T21:57:08.747Z,32.22
2018-07-02T21:59:38.237Z,36.12
2018-07-02T22:02:07.648Z,32.52
2018-07-02T22:04:37.268Z,33.58
2018-07-02T22:07:06.959Z,33.14
2018-07-02T22:09:36.241Z,34.15
2018-07-02T22:12:05.580Z,34.40
2018-07-02T22:14:34.897Z,34.27
2018-07-02T22:17:04.167Z,32.92
2018-07-02T22:19:33.533Z,33.98
2018-07-02T22:22:02.965Z,32.90
2018-07-02T22:24:32.213Z,34.16
2018-07-02T22:27:01.620Z,33.97
2018-07-02T22:29:30.945Z,33.40
2018-07-02T22:32:00.347Z,34.75
2018-07-02T22:34:31.051Z,34.13
2018-07-02T22:37:00.407Z,34.44
2018-07-02T22:39:29.793Z,34.14
2018-07-02T22:41:59.098Z,34.62
2018-07-02T22:44:28.417Z,35.44
2018-07-02T22:46:57.506Z,33.54
2018-07-02T22:49:26.939Z,34.95
2018-07-02T22:51:56.475Z,33.37
2018-07-02T22:54:25.851Z,34.36
2018-07-02T22:56:55.222Z,34.45
2018-07-02T22:59:24.612Z,34.31
2018-07-02T23:01:54.166Z,35.41
2018-07-02T23:04:23.525Z,34.40
2018-07-02T23:06:52.802Z,34.39
2018-07-02T23:09:22.278Z,35.20
2018-07-02T23:11:51.869Z,35.00
2018-07-02T23:14:21.125Z,35.53
2018-07-02T23:16:50.359Z,35.74
2018-07-02T23:19:19.651Z,34.98
2018-07-02T23:21:49.048Z,34.34
2018-07-02T23:24:18.282Z,33.37
2018-07-02T23:26:47.658Z,34.00
2018-07-02T23:29:16.939Z,34.21
2018-07-02T23:31:46.315Z,34.69
2018-07-02T23:34:15.755Z,34.64
2018-07-02T23:36:45.053Z,34.26
2018-07-02T23:39:14.758Z,35.82
2018-07-02T23:41:44.807Z,35.49
2018-07-02T23:44:14.054Z,34.91
2018-07-02T23:46:43.308Z,35.28
2018-07-02T23:49:12.343Z,34.59
2018-07-02T23:51:41.771Z,33.94
2018-07-02T23:54:11.061Z,34.62
2018-07-02T23:56:40.313Z,35.74
2018-07-02T23:59:09.585Z,35.34
